Time;durP1;ratioP1;P1;durP2;ratioP2;P2;SDS_P1;SDS_P2;PMS_P1;PMS_P2;Temp;Humidity;BMP_temperature;BMP_pressure;BME280_temperature;BME280_humidity;BME280_pressure;Samples;Min_cycle;Max_cycle;Signal;HPM_P1;HPM_P2
2023/01/12 00:40:24;;;;;;;58.50;30.63;;;;;;;;;;6191043;23;20009;-94
2023/01/12 01:10:43;;;;;;;;;;;;;;;;;;;;;
2023/01/12 01:13:35;;;;;;;86.45;44.85;;;;;;;;;;6210266;22;20164;-94
2023/01/12 01:16:07;;;;;;;91.63;48.30;;;;;;;;;;6183210;23;20005;-94
2023/01/12 01:21:55;;;;;;;74.60;43.78;;;;;;;;;;6218832;23;20035;-94
2023/01/12 01:24:24;;;;;;;76.68;44.67;;;;;;;;;;6188868;23;20334;-95
2023/01/12 01:27:01;;;;;;;80.60;44.42;;;;;;;;;;6163615;23;20012;-95
2023/01/12 01:29:48;;;;;;;;;;;;;;;;;;;;;
2023/01/12 01:35:31;;;;;;;68.00;38.67;;;;;;;;;;6129848;23;20073;-94
2023/01/12 01:38:42;;;;;;;;;;;;;;;;;;;;;
2023/01/12 01:41:18;;;;;;;36.90;22.63;;;;;;;;;;6103019;23;20033;-95
2023/01/12 01:44:10;;;;;;;44.53;24.88;;;;;;;;;;6101139;23;20398;-94
2023/01/12 01:46:54;;;;;;;45.75;25.63;;;;;;;;;;6098461;23;20062;-95
2023/01/12 01:58:33;;;;;;;52.70;29.95;;;;;;;;;;6105262;23;20412;-96
2023/01/12 02:01:07;;;;;;;45.38;26.00;;;;;;;;;;6079549;23;20018;-95
2023/01/12 02:03:57;;;;;;;39.90;23.75;;;;;;;;;;6104687;23;20014;-94
2023/01/12 02:06:35;;;;;;;;;;;;;;;;;;;;;
2023/01/12 02:09:14;;;;;;;36.58;21.23;;;;;;;;;;6105515;23;20338;-94
2023/01/12 02:17:38;;;;;;;59.95;23.33;;;;;;;;;;6283385;22;20077;-96
2023/01/12 02:20:13;;;;;;;39.22;19.98;;;;;;;;;;6283334;22;20270;-94
2023/01/12 02:22:58;;;;;;;33.55;19.60;;;;;;;;;;6256656;22;20023;-95
2023/01/12 02:25:43;;;;;;;37.47;21.40;;;;;;;;;;6256804;22;20007;-94
2023/01/12 02:28:09;;;;;;;39.78;21.75;;;;;;;;;;6256574;22;20011;-93
2023/01/12 02:30:45;;;;;;;34.25;20.83;;;;;;;;;;6283259;22;20004;-95
2023/01/12 02:33:23;;;;;;;30.55;19.30;;;;;;;;;;6282808;22;20011;-94
2023/01/12 02:35:55;;;;;;;32.30;19.42;;;;;;;;;;6283212;22;20000;-95
2023/01/12 02:38:21;;;;;;;;;;;;;;;;;;6256743;22;20004;-94
2023/01/12 02:40:58;;;;;;;33.22;20.48;;;;;;;;;;6283157;22;19974;-94
2023/01/12 02:43:24;;;;;;;33.28;20.02;;;;;;;;;;6256241;22;20018;-95
2023/01/12 02:45:56;;;;;;;33.22;21.13;;;;;;;;;;6256398;22;20003;-95
2023/01/12 02:48:26;;;;;;;33.15;20.02;;;;;;;;;;6283029;22;20008;-94
2023/01/12 02:51:01;;;;;;;36.22;21.05;;;;;;;;;;6283196;22;19999;-95
2023/01/12 02:53:27;;;;;;;32.88;21.70;;;;;;;;;;6282970;22;20069;-94
2023/01/12 02:56:23;;;;;;;;;;;;;;;;;;;;;
2023/01/12 03:15:17;;;;;;;;;;;;;;;;;;;;;
2023/01/12 03:18:02;;;;;;;33.33;20.27;;;;;;;;;;6230148;22;20055;-95
2023/01/12 03:42:47;;;;;;;52.88;29.17;;;;;;;;;;6218961;23;20394;-94
2023/01/12 03:45:31;;;;;;;55.88;28.20;;;;;;;;;;6105254;23;20093;-94
2023/01/12 03:48:01;;;;;;;40.33;24.30;;;;;;;;;;6105251;23;20377;-92
2023/01/12 03:50:30;;;;;;;41.45;23.90;;;;;;;;;;6129912;23;20002;-94
2023/01/12 03:52:56;;;;;;;38.28;23.02;;;;;;;;;;6105214;23;20033;-94
2023/01/12 03:55:23;;;;;;;42.85;24.05;;;;;;;;;;6105483;23;20006;-92
2023/01/12 04:50:00;;;;;;;41.22;26.67;;;;;;;;;;6283015;22;19994;-95
2023/01/12 04:52:26;;;;;;;47.08;27.48;;;;;;;;;;6255215;22;20031;-95
2023/01/12 04:54:52;;;;;;;47.35;26.55;;;;;;;;;;6257316;22;20003;-90
2023/01/12 04:57:19;;;;;;;43.38;27.02;;;;;;;;;;6257854;22;20374;-92
2023/01/12 04:59:45;;;;;;;49.60;28.02;;;;;;;;;;6284377;22;20360;-91
2023/01/12 05:02:11;;;;;;;40.45;25.58;;;;;;;;;;6256806;22;20090;-93
2023/01/12 05:04:38;;;;;;;41.40;25.42;;;;;;;;;;6257106;22;20270;-93
2023/01/12 05:07:04;;;;;;;41.13;26.58;;;;;;;;;;6256802;22;20000;-93
2023/01/12 05:12:14;;;;;;;38.95;23.83;;;;;;;;;;6283850;22;20050;-92
2023/01/12 05:14:40;;;;;;;47.50;26.55;;;;;;;;;;6284074;22;20000;-91
2023/01/12 05:17:06;;;;;;;49.70;28.95;;;;;;;;;;6257150;22;20015;-94
2023/01/12 05:19:32;;;;;;;48.60;29.48;;;;;;;;;;6257029;22;20012;-93
2023/01/12 05:22:01;;;;;;;47.05;29.17;;;;;;;;;;6283836;22;20003;-93
2023/01/12 05:24:28;;;;;;;45.83;27.98;;;;;;;;;;6283637;22;20004;-94
2023/01/12 05:26:54;;;;;;;53.47;29.77;;;;;;;;;;6256745;22;20038;-93
2023/01/12 05:29:20;;;;;;;96.45;40.95;;;;;;;;;;6283900;22;19996;-94
2023/01/12 05:31:46;;;;;;;87.80;39.15;;;;;;;;;;6256816;22;20011;-93
2023/01/12 05:34:12;;;;;;;62.47;31.67;;;;;;;;;;6283446;22;20046;-91
2023/01/12 05:36:39;;;;;;;52.17;29.17;;;;;;;;;;6283629;22;20003;-92
2023/01/12 05:39:05;;;;;;;59.85;29.98;;;;;;;;;;6283284;22;20000;-93
2023/01/12 05:41:31;;;;;;;58.78;33.05;;;;;;;;;;6256630;22;19995;-93
2023/01/12 05:43:57;;;;;;;63.50;37.13;;;;;;;;;;6256506;22;20008;-93
2023/01/12 05:46:28;;;;;;;90.63;46.35;;;;;;;;;;6283180;22;20053;-95
2023/01/12 05:48:55;;;;;;;88.13;44.60;;;;;;;;;;6256253;22;20023;-94
2023/01/12 05:51:21;;;;;;;92.25;46.80;;;;;;;;;;6283755;22;20000;-93
2023/01/12 05:53:48;;;;;;;114.00;55.08;;;;;;;;;;6283467;22;20012;-94
2023/01/12 05:56:17;;;;;;;81.50;43.22;;;;;;;;;;6256323;22;20049;-93
2023/01/12 05:58:43;;;;;;;74.60;39.65;;;;;;;;;;6283527;22;20015;-93
2023/01/12 06:01:09;;;;;;;83.03;45.30;;;;;;;;;;6283568;22;20000;-92
2023/01/12 06:03:36;;;;;;;81.05;45.40;;;;;;;;;;6256411;22;20008;-92
2023/01/12 06:15:44;;;;;;;90.13;49.72;;;;;;;;;;6283231;22;20014;-93
2023/01/12 06:18:11;;;;;;;80.82;45.65;;;;;;;;;;6282782;22;20003;-93
2023/01/12 06:23:40;;;;;;;70.65;41.90;;;;;;;;;;6282592;22;20056;-92
2023/01/12 06:26:08;;;;;;;101.00;54.65;;;;;;;;;;6256228;22;20189;-93
2023/01/12 06:28:37;;;;;;;90.47;48.42;;;;;;;;;;6283007;22;20078;-93
2023/01/12 06:31:05;;;;;;;78.93;46.38;;;;;;;;;;6256159;22;20078;-92
2023/01/12 06:33:31;;;;;;;103.93;56.63;;;;;;;;;;6256008;22;20010;-93
2023/01/12 06:44:49;;;;;;;77.20;41.10;;;;;;;;;;6282833;22;20010;-94
2023/01/12 06:47:16;;;;;;;69.72;39.47;;;;;;;;;;6256142;22;20000;-93
2023/01/12 06:49:42;;;;;;;69.68;40.28;;;;;;;;;;6255707;22;20066;-93
2023/01/12 06:52:08;;;;;;;66.38;39.42;;;;;;;;;;6282603;22;20082;-94
2023/01/12 06:54:34;;;;;;;84.95;44.63;;;;;;;;;;6282615;22;20010;-91
2023/01/12 06:57:00;;;;;;;90.05;46.97;;;;;;;;;;6282863;22;20326;-92
2023/01/12 06:59:26;;;;;;;106.80;52.35;;;;;;;;;;6282945;22;20075;-92
2023/01/12 07:01:52;;;;;;;106.70;56.60;;;;;;;;;;6282852;22;20057;-94
2023/01/12 07:04:55;;;;;;;91.68;53.58;;;;;;;;;;6282765;22;20000;-92
2023/01/12 07:07:21;;;;;;;93.07;48.65;;;;;;;;;;6255692;22;20000;-94
2023/01/12 07:09:47;;;;;;;75.90;44.70;;;;;;;;;;6256692;22;20232;-93
2023/01/12 07:12:14;;;;;;;80.03;46.45;;;;;;;;;;6255862;22;20003;-93
2023/01/12 07:14:40;;;;;;;80.43;49.08;;;;;;;;;;6255645;22;20000;-92
2023/01/12 07:17:06;;;;;;;82.53;50.33;;;;;;;;;;6282051;22;20004;-93
2023/01/12 07:19:32;;;;;;;102.53;55.67;;;;;;;;;;6282389;22;20016;-92
2023/01/12 07:21:58;;;;;;;119.68;63.58;;;;;;;;;;6282541;22;20083;-92
2023/01/12 07:24:24;;;;;;;172.15;90.32;;;;;;;;;;6282924;22;20000;-93
2023/01/12 07:26:51;;;;;;;183.63;89.07;;;;;;;;;;6255766;22;20023;-94
2023/01/12 07:29:17;;;;;;;108.25;54.17;;;;;;;;;;6282414;22;20004;-94
2023/01/12 07:31:56;;;;;;;109.20;51.55;;;;;;;;;;6282625;22;20053;-94
2023/01/12 07:34:22;;;;;;;106.60;54.17;;;;;;;;;;6283333;22;20000;-93
2023/01/12 07:39:51;;;;;;;83.57;50.70;;;;;;;;;;6282300;22;20126;-94
2023/01/12 07:42:23;;;;;;;66.88;41.45;;;;;;;;;;6255904;22;20004;-92
2023/01/12 07:44:49;;;;;;;58.05;34.50;;;;;;;;;;6255741;22;20003;-93
2023/01/12 07:47:15;;;;;;;108.38;45.63;;;;;;;;;;6255396;22;20004;-94
2023/01/12 07:53:21;;;;;;;73.43;37.10;;;;;;;;;;6282277;22;20015;-95
2023/01/12 07:55:47;;;;;;;67.97;33.70;;;;;;;;;;6282474;22;20019;-93
2023/01/12 07:58:13;;;;;;;69.20;40.20;;;;;;;;;;6282531;22;20251;-93
2023/01/12 08:00:39;;;;;;;64.20;37.20;;;;;;;;;;6282704;22;20000;-93
2023/01/12 08:03:06;;;;;;;75.20;42.42;;;;;;;;;;6255221;22;20294;-95
2023/01/12 08:08:36;;;;;;;94.90;43.55;;;;;;;;;;6282347;22;19999;-94
2023/01/12 08:11:06;;;;;;;178.30;71.57;;;;;;;;;;6255189;22;20003;-95
2023/01/12 08:13:32;;;;;;;134.10;55.75;;;;;;;;;;6255698;22;20014;-95
2023/01/12 08:16:03;;;;;;;93.78;45.40;;;;;;;;;;6255412;22;20004;-94
2023/01/12 08:18:32;;;;;;;114.28;48.88;;;;;;;;;;6282260;22;20004;-94
2023/01/12 08:21:00;;;;;;;140.10;57.63;;;;;;;;;;6255273;22;20102;-92
2023/01/12 08:23:29;;;;;;;81.90;41.63;;;;;;;;;;6254958;22;20008;-93
2023/01/12 08:25:58;;;;;;;71.95;37.45;;;;;;;;;;6281892;22;20027;-94
2023/01/12 08:28:36;;;;;;;75.63;41.42;;;;;;;;;;6283075;22;20003;-93
2023/01/12 08:31:02;;;;;;;68.68;37.75;;;;;;;;;;6284582;22;20015;-93
2023/01/12 08:33:28;;;;;;;63.15;36.13;;;;;;;;;;6257477;22;20011;-91
2023/01/12 08:35:55;;;;;;;67.88;38.35;;;;;;;;;;6257492;22;20271;-94
2023/01/12 08:38:21;;;;;;;76.15;43.00;;;;;;;;;;6285087;22;20004;-92
2023/01/12 08:46:16;;;;;;;82.55;42.58;;;;;;;;;;6283858;22;20015;-94
2023/01/12 08:48:42;;;;;;;64.25;37.42;;;;;;;;;;6256998;22;20019;-92
2023/01/12 08:57:29;;;;;;;71.53;43.65;;;;;;;;;;6283829;22;20365;-93
2023/01/12 08:59:56;;;;;;;64.35;37.47;;;;;;;;;;6257543;22;20011;-93
2023/01/12 09:02:24;;;;;;;67.75;38.83;;;;;;;;;;6283924;22;20020;-95
2023/01/12 09:04:50;;;;;;;68.32;37.20;;;;;;;;;;6257230;22;20003;-93
2023/01/12 09:07:16;;;;;;;66.50;38.75;;;;;;;;;;6256995;22;20045;-94
2023/01/12 09:09:42;;;;;;;71.75;39.58;;;;;;;;;;6284146;22;20000;-94
2023/01/12 09:12:08;;;;;;;73.15;41.10;;;;;;;;;;6284455;22;20085;-94
2023/01/12 09:14:37;;;;;;;90.10;50.30;;;;;;;;;;6257116;22;20003;-95
2023/01/12 09:17:04;;;;;;;110.18;63.72;;;;;;;;;;6283569;22;20071;-94
2023/01/12 09:19:30;;;;;;;91.45;49.40;;;;;;;;;;6256733;22;20008;-93
2023/01/12 09:21:56;;;;;;;87.38;44.40;;;;;;;;;;6256721;22;20042;-93
2023/01/12 09:24:22;;;;;;;76.55;40.15;;;;;;;;;;6256604;22;20066;-93
2023/01/12 09:26:48;;;;;;;68.20;39.97;;;;;;;;;;6283808;22;19996;-92
2023/01/12 09:29:14;;;;;;;62.80;35.88;;;;;;;;;;6283497;22;20026;-92
2023/01/12 09:31:41;;;;;;;64.10;36.17;;;;;;;;;;6283411;22;20003;-92
2023/01/12 09:34:08;;;;;;;63.42;39.85;;;;;;;;;;6283804;22;20027;-93
2023/01/12 09:36:35;;;;;;;82.47;45.63;;;;;;;;;;6283467;22;20008;-93
2023/01/12 09:39:01;;;;;;;64.85;35.80;;;;;;;;;;6283508;22;20010;-93
2023/01/12 09:46:59;;;;;;;45.42;27.50;;;;;;;;;;6283386;22;20062;-93
2023/01/12 09:49:33;;;;;;;44.45;28.80;;;;;;;;;;6256812;22;20022;-93
2023/01/12 09:52:02;;;;;;;40.08;25.52;;;;;;;;;;6283549;22;20075;-93
2023/01/12 09:54:33;;;;;;;38.47;25.02;;;;;;;;;;6284054;22;20000;-94
2023/01/12 09:57:29;;;;;;;37.65;25.05;;;;;;;;;;6284237;22;19996;-94
2023/01/12 10:00:02;;;;;;;39.63;24.35;;;;;;;;;;6189955;23;20001;-93
2023/01/12 10:02:32;;;;;;;42.13;25.67;;;;;;;;;;6190036;23;20430;-94
2023/01/12 10:12:20;;;;;;;42.22;25.70;;;;;;;;;;6193382;23;20024;-96
2023/01/12 10:15:04;;;;;;;31.75;20.98;;;;;;;;;;6190446;23;20020;-95
2023/01/12 10:17:36;;;;;;;36.13;21.52;;;;;;;;;;6165437;23;20411;-93
2023/01/12 10:20:17;;;;;;;45.80;28.67;;;;;;;;;;6190224;23;20009;-96
2023/01/12 10:22:53;;;;;;;47.00;25.25;;;;;;;;;;6165235;23;20033;-95
2023/01/12 10:25:40;;;;;;;41.50;22.52;;;;;;;;;;6190067;23;20016;-93
2023/01/12 10:28:17;;;;;;;34.33;22.20;;;;;;;;;;6165513;23;20280;-94
2023/01/12 10:30:44;;;;;;;47.55;26.45;;;;;;;;;;6165864;22;20023;-94
2023/01/12 10:33:17;;;;;;;40.08;22.77;;;;;;;;;;6165524;23;20013;-93
2023/01/12 10:36:01;;;;;;;38.28;24.00;;;;;;;;;;6170293;22;20005;-93
2023/01/12 14:00:58;;;;;;;24.98;12.45;;;;;;;;;;6264479;22;20100;-91
2023/01/12 14:04:02;;;;;;;;;;;;;;;;;;;;;
2023/01/12 14:23:05;;;;;;;43.67;19.88;;;;;;;;;;6298726;22;20021;-94
2023/01/12 15:44:50;;;;;;;50.63;28.00;;;;;;;;;;6299835;22;20331;-96
2023/01/12 16:19:39;;;;;;;154.10;75.50;;;;;;;;;;6226776;22;21115;31
2023/01/12 16:22:09;;;;;;;38.13;20.73;;;;;;;;;;6226296;23;20036;-96
2023/01/12 16:29:50;;;;;;;90.03;46.30;;;;;;;;;;6273057;22;20025;-95
2023/01/12 16:32:36;;;;;;;60.25;31.10;;;;;;;;;;6225626;23;20013;-92
2023/01/12 16:35:02;;;;;;;65.85;29.75;;;;;;;;;;6196875;23;20299;-94
2023/01/12 16:40:33;;;;;;;33.92;20.27;;;;;;;;;;6221944;23;19999;-94
2023/01/12 16:42:59;;;;;;;62.97;35.00;;;;;;;;;;6222678;23;20013;-94
2023/01/12 16:45:28;;;;;;;52.08;29.42;;;;;;;;;;6195714;23;20001;-94
2023/01/12 16:56:43;;;;;;;46.65;25.80;;;;;;;;;;6258015;23;20409;-95
2023/01/12 16:59:15;;;;;;;121.07;51.28;;;;;;;;;;6256580;23;20004;-95
2023/01/12 17:12:27;;;;;;;115.00;51.58;;;;;;;;;;6288238;22;20023;-95
2023/01/12 17:18:09;;;;;;;89.47;37.63;;;;;;;;;;6073837;23;20042;-96
2023/01/12 17:20:38;;;;;;;158.65;57.28;;;;;;;;;;6073130;23;20007;-95
2023/01/12 17:23:04;;;;;;;195.15;63.05;;;;;;;;;;6089843;23;20266;-93
2023/01/12 17:25:37;;;;;;;250.57;84.22;;;;;;;;;;6132218;22;20285;-95
2023/01/12 17:28:06;;;;;;;72.30;29.50;;;;;;;;;;6287187;22;20053;-96
2023/01/12 17:30:35;;;;;;;144.00;51.85;;;;;;;;;;6289833;22;20240;-96
2023/01/12 17:52:45;;;;;;;244.95;106.90;;;;;;;;;;6270249;22;20027;-91
2023/01/12 18:22:05;;;;;;;;;;;;;;;;;;;;;
2023/01/12 18:25:04;;;;;;;97.15;50.30;;;;;;;;;;6271243;22;20098;-96
2023/01/12 18:27:53;;;;;;;113.68;59.03;;;;;;;;;;6257024;23;20279;-96
2023/01/12 18:30:36;;;;;;;315.25;126.35;;;;;;;;;;6257830;23;20009;-95
2023/01/12 18:33:27;;;;;;;175.35;73.55;;;;;;;;;;6266616;22;20043;-96
2023/01/12 18:55:02;;;;;;;198.15;68.18;;;;;;;;;;6221695;23;20059;-88
2023/01/12 18:57:30;;;;;;;214.73;77.63;;;;;;;;;;6221884;23;20032;-89
2023/01/12 18:59:59;;;;;;;419.95;181.18;;;;;;;;;;6195790;23;20005;-88
2023/01/12 19:02:25;;;;;;;213.32;91.43;;;;;;;;;;6195331;23;20016;-89
2023/01/12 19:07:38;;;;;;;314.52;138.52;;;;;;;;;;6231948;23;20388;-88
2023/01/12 19:10:04;;;;;;;243.57;93.93;;;;;;;;;;6222021;23;20007;-88
2023/01/12 19:12:32;;;;;;;172.05;71.88;;;;;;;;;;6195336;23;20003;-88
2023/01/12 19:17:43;;;;;;;201.18;85.32;;;;;;;;;;6221480;23;20012;-89
2023/01/12 19:20:14;;;;;;;85.22;44.10;;;;;;;;;;6221396;23;20004;-89
2023/01/12 19:28:31;;;;;;;69.82;38.47;;;;;;;;;;6221285;23;20015;-88
2023/01/12 19:28:39;;;;;;;88.40;49.17;;;;;;;;;;6221271;23;20007;-88
2023/01/12 19:31:09;;;;;;;48.80;29.48;;;;;;;;;;6221392;23;20054;-88
2023/01/12 19:33:36;;;;;;;34.80;23.15;;;;;;;;;;6221330;23;20000;-88
2023/01/12 19:36:06;;;;;;;36.88;23.88;;;;;;;;;;6194291;23;20012;-88
2023/01/12 19:38:34;;;;;;;67.63;38.42;;;;;;;;;;6221514;23;20005;-89
2023/01/12 19:41:09;;;;;;;40.88;25.52;;;;;;;;;;6195123;23;20375;-88
2023/01/12 19:43:38;;;;;;;64.35;37.83;;;;;;;;;;6195052;23;20016;-89
2023/01/12 19:46:04;;;;;;;116.75;63.58;;;;;;;;;;6195389;23;20434;-89
2023/01/12 19:48:31;;;;;;;91.82;48.83;;;;;;;;;;6195051;23;20004;-89
2023/01/12 19:51:03;;;;;;;60.70;36.92;;;;;;;;;;6194488;23;20013;-90
2023/01/12 19:53:29;;;;;;;58.40;34.50;;;;;;;;;;6220898;22;20024;-88
2023/01/12 19:55:55;;;;;;;48.08;28.23;;;;;;;;;;6195457;23;20009;-88
2023/01/12 19:58:21;;;;;;;57.58;33.85;;;;;;;;;;6194943;23;20015;-88
2023/01/12 20:00:48;;;;;;;52.17;30.52;;;;;;;;;;6221581;23;20012;-89
2023/01/12 20:03:18;;;;;;;42.72;27.05;;;;;;;;;;6194906;23;20000;-88
2023/01/12 20:05:52;;;;;;;49.03;31.45;;;;;;;;;;6194751;23;20005;-88
2023/01/12 20:11:21;;;;;;;54.63;36.65;;;;;;;;;;6220818;23;20043;-88
2023/01/12 20:13:47;;;;;;;54.80;35.97;;;;;;;;;;6220641;23;20008;-88
2023/01/12 20:16:13;;;;;;;51.22;39.95;;;;;;;;;;6220945;23;20008;-88
2023/01/12 20:18:42;;;;;;;54.17;38.55;;;;;;;;;;6220762;23;20009;-88
2023/01/12 20:21:09;;;;;;;58.72;43.72;;;;;;;;;;6220996;23;20004;-88
2023/01/12 20:23:35;;;;;;;51.53;36.45;;;;;;;;;;6220974;23;20012;-88
2023/01/12 20:26:01;;;;;;;40.95;27.65;;;;;;;;;;6223555;23;20072;-87
2023/01/12 20:28:27;;;;;;;40.80;25.67;;;;;;;;;;6196600;23;20079;-88
2023/01/12 20:30:53;;;;;;;42.83;27.05;;;;;;;;;;6223373;23;20024;-88
2023/01/12 20:33:21;;;;;;;130.93;64.93;;;;;;;;;;6223276;23;20012;-88
2023/01/12 20:35:48;;;;;;;300.52;128.40;;;;;;;;;;6223300;23;20019;-88
2023/01/12 20:38:15;;;;;;;419.23;185.82;;;;;;;;;;6223213;23;20009;-87
2023/01/12 20:40:42;;;;;;;316.23;142.73;;;;;;;;;;6222673;23;20394;-87
2023/01/12 20:43:51;;;;;;;;;;;;;;;;;;;;;
2023/01/12 22:50:07;;;;;;;59.90;23.70;;;;;;;;;;6259602;22;20070;-95
2023/01/12 22:52:33;;;;;;;48.15;21.83;;;;;;;;;;6257634;23;19996;-93
2023/01/12 22:54:59;;;;;;;40.80;19.85;;;;;;;;;;6231489;23;20032;-95
2023/01/12 22:57:28;;;;;;;37.03;18.42;;;;;;;;;;6257002;23;19996;-94
2023/01/12 23:00:11;;;;;;;40.15;18.95;;;;;;;;;;6261661;23;20004;-94
2023/01/12 23:03:00;;;;;;;41.55;19.58;;;;;;;;;;6264281;23;20015;-94
2023/01/12 23:33:59;;;;;;;;;;;;;;;;;;;;;
